createdAt,value
2018-10-01T00:00:13.189Z,0
2018-10-01T00:01:23.145Z,0
2018-10-01T00:02:33.091Z,0
2018-10-01T00:03:42.887Z,0
2018-10-01T00:04:52.832Z,0
2018-10-01T00:06:02.510Z,0
2018-10-01T00:07:12.460Z,0
2018-10-01T00:08:22.648Z,0
2018-10-01T00:09:32.593Z,0
2018-10-01T00:10:42.530Z,0
2018-10-01T00:11:52.475Z,0
2018-10-01T00:13:02.154Z,0
2018-10-01T00:14:11.601Z,0
2018-10-01T00:15:21.545Z,0
2018-10-01T00:16:31.492Z,0
2018-10-01T00:17:41.428Z,0
2018-10-01T00:18:51.372Z,0
2018-10-01T00:20:01.052Z,0
2018-10-01T00:21:10.470Z,0
2018-10-01T00:22:20.412Z,0
2018-10-01T00:23:30.579Z,0
2018-10-01T00:24:40.527Z,0
2018-10-01T00:25:50.463Z,0
2018-10-01T00:27:00.404Z,0
2018-10-01T00:28:10.088Z,0
2018-10-01T00:29:20.038Z,0
2018-10-01T00:30:29.969Z,0
2018-10-01T00:31:39.667Z,0
2018-10-01T00:32:49.617Z,0
2018-10-01T00:33:59.559Z,0
2018-10-01T00:35:09.486Z,0
2018-10-01T00:36:19.426Z,0
2018-10-01T00:37:29.106Z,0
2018-10-01T00:38:39.422Z,0
2018-10-01T00:39:49.418Z,0
2018-10-01T00:40:59.360Z,0
2018-10-01T00:42:09.312Z,0
2018-10-01T00:43:19.260Z,0
2018-10-01T00:44:29.201Z,0
2018-10-01T00:45:38.617Z,0
2018-10-01T00:46:48.049Z,0
2018-10-01T00:47:58.075Z,0
2018-10-01T00:49:07.772Z,0
2018-10-01T00:50:17.706Z,0
2018-10-01T00:51:27.400Z,0
2018-10-01T00:52:37.089Z,0
2018-10-01T00:53:47.030Z,0
2018-10-01T00:54:56.955Z,0
2018-10-01T00:56:06.693Z,0
2018-10-01T00:57:16.652Z,0
2018-10-01T00:58:26.337Z,0
2018-10-01T00:59:36.037Z,0
2018-10-01T01:00:45.975Z,0
2018-10-01T01:01:55.413Z,0
2018-10-01T01:03:05.361Z,0
2018-10-01T01:04:15.301Z,0
2018-10-01T01:05:24.980Z,0
2018-10-01T01:06:34.667Z,0
2018-10-01T01:07:44.599Z,0
2018-10-01T01:08:54.562Z,0
2018-10-01T01:10:04.493Z,0
2018-10-01T01:11:14.436Z,0
2018-10-01T01:12:24.371Z,0
2018-10-01T01:13:34.323Z,0
2018-10-01T01:14:43.730Z,0
2018-10-01T01:15:53.663Z,0
2018-10-01T01:17:03.343Z,0
2018-10-01T01:18:13.294Z,0
2018-10-01T01:19:23.245Z,0
2018-10-01T01:20:33.178Z,0
2018-10-01T01:21:43.113Z,0
2018-10-01T01:22:52.843Z,0
2018-10-01T01:24:02.796Z,0
2018-10-01T01:25:12.480Z,0
2018-10-01T01:26:22.162Z,0
2018-10-01T01:27:32.112Z,0
2018-10-01T01:28:42.071Z,0
2018-10-01T01:29:52.012Z,0
2018-10-01T01:31:01.960Z,0
2018-10-01T01:32:11.620Z,0
2018-10-01T01:33:21.563Z,0
2018-10-01T01:34:31.496Z,0
2018-10-01T01:35:41.428Z,0
2018-10-01T01:36:50.855Z,0
2018-10-01T01:38:00.584Z,0
2018-10-01T01:39:10.532Z,0
2018-10-01T01:40:20.195Z,0
2018-10-01T01:41:29.892Z,0
2018-10-01T01:42:39.822Z,0
2018-10-01T01:43:49.506Z,0
2018-10-01T01:44:59.445Z,0
2018-10-01T01:46:09.373Z,0
2018-10-01T01:47:19.060Z,0
2018-10-01T01:48:28.740Z,0
2018-10-01T01:49:38.687Z,0
2018-10-01T01:50:48.637Z,0
2018-10-01T01:51:58.581Z,0
2018-10-01T01:53:08.274Z,0
2018-10-01T01:54:17.954Z,0
2018-10-01T01:55:27.883Z,0
2018-10-01T01:56:37.816Z,0
2018-10-01T01:57:47.235Z,0
2018-10-01T01:58:56.926Z,0
2018-10-01T02:00:06.622Z,0
2018-10-01T02:01:16.302Z,0
2018-10-01T02:02:25.983Z,0
2018-10-01T02:03:35.906Z,0
2018-10-01T02:04:45.845Z,0
2018-10-01T02:05:55.800Z,0
2018-10-01T02:07:05.475Z,0
2018-10-01T02:08:15.412Z,0
2018-10-01T02:09:25.379Z,0
2018-10-01T02:10:35.372Z,0
2018-10-01T02:11:45.321Z,0
2018-10-01T02:12:54.994Z,0
2018-10-01T02:14:04.925Z,0
2018-10-01T02:15:14.607Z,0
2018-10-01T02:16:24.574Z,0
2018-10-01T02:17:34.511Z,0
2018-10-01T02:18:44.442Z,0
2018-10-01T02:19:54.386Z,0
2018-10-01T02:21:03.825Z,0
2018-10-01T02:22:13.521Z,0
2018-10-01T02:23:23.207Z,0
2018-10-01T02:24:33.143Z,0
2018-10-01T02:25:42.850Z,0
2018-10-01T02:26:52.266Z,0
2018-10-01T02:28:01.945Z,0
2018-10-01T02:29:11.890Z,0
2018-10-01T02:30:21.839Z,0
2018-10-01T02:31:31.775Z,0
2018-10-01T02:32:41.716Z,0
2018-10-01T02:33:51.679Z,0
2018-10-01T02:35:01.626Z,0
2018-10-01T02:36:11.648Z,0
2018-10-01T02:37:21.597Z,0
2018-10-01T02:38:31.550Z,0
2018-10-01T02:39:41.481Z,0
2018-10-01T02:40:51.415Z,0
2018-10-01T02:42:01.098Z,0
2018-10-01T02:43:11.085Z,0
2018-10-01T02:44:21.017Z,0
2018-10-01T02:45:30.955Z,0
2018-10-01T02:46:40.935Z,0
2018-10-01T02:47:51.403Z,0
2018-10-01T02:49:01.104Z,0
2018-10-01T02:50:11.047Z,0
2018-10-01T02:51:20.732Z,0
2018-10-01T02:52:30.681Z,0
2018-10-01T02:53:40.620Z,0
2018-10-01T02:54:50.567Z,0
2018-10-01T02:56:00.238Z,0
2018-10-01T02:57:09.927Z,0
2018-10-01T02:58:19.924Z,0
2018-10-01T02:59:29.855Z,0
2018-10-01T03:00:39.540Z,0
2018-10-01T03:01:49.219Z,0
2018-10-01T03:02:59.164Z,0
2018-10-01T03:04:09.142Z,0
2018-10-01T03:05:19.114Z,0
2018-10-01T03:06:29.070Z,0
2018-10-01T03:07:39.025Z,0
2018-10-01T03:08:48.968Z,0
2018-10-01T03:09:58.656Z,0
2018-10-01T03:11:08.609Z,0
2018-10-01T03:12:18.945Z,0
2018-10-01T03:13:28.736Z,0
2018-10-01T03:14:38.685Z,0
2018-10-01T03:15:48.369Z,0
2018-10-01T03:16:58.333Z,0
2018-10-01T03:18:07.771Z,0
2018-10-01T03:19:17.757Z,0
2018-10-01T03:20:27.691Z,0
2018-10-01T03:21:37.675Z,0
2018-10-01T03:22:47.096Z,0
2018-10-01T03:23:57.063Z,0
2018-10-01T03:25:07.016Z,0
2018-10-01T03:26:16.970Z,0
2018-10-01T03:27:26.923Z,0
2018-10-01T03:28:36.599Z,0
2018-10-01T03:29:46.565Z,0
2018-10-01T03:30:56.516Z,0
2018-10-01T03:32:06.197Z,0
2018-10-01T03:33:15.864Z,0
2018-10-01T03:34:25.800Z,0
2018-10-01T03:35:35.220Z,0
2018-10-01T03:36:45.143Z,0
2018-10-01T03:37:55.075Z,0
2018-10-01T03:39:04.764Z,0
2018-10-01T03:40:15.161Z,0
2018-10-01T03:41:25.213Z,0
2018-10-01T03:42:35.142Z,0
2018-10-01T03:43:45.108Z,0
2018-10-01T03:44:54.795Z,0
2018-10-01T03:46:04.478Z,0
2018-10-01T03:47:14.178Z,0
2018-10-01T03:48:24.111Z,0
2018-10-01T03:49:33.784Z,0
2018-10-01T03:50:43.723Z,0
2018-10-01T03:51:53.689Z,0
2018-10-01T03:53:03.630Z,0
2018-10-01T03:54:13.574Z,0
2018-10-01T03:55:23.260Z,0
2018-10-01T03:56:32.939Z,0
2018-10-01T03:57:42.629Z,0
2018-10-01T03:58:52.576Z,0
2018-10-01T04:00:02.241Z,0
2018-10-01T04:01:11.949Z,0
2018-10-01T04:02:21.885Z,0
2018-10-01T04:03:32.066Z,0
2018-10-01T04:04:42.011Z,0
2018-10-01T04:05:51.991Z,0
2018-10-01T04:07:01.959Z,0
2018-10-01T04:08:11.889Z,0
2018-10-01T04:09:21.843Z,0
2018-10-01T04:10:31.800Z,0
2018-10-01T04:11:41.498Z,0
2018-10-01T04:12:51.438Z,0
2018-10-01T04:14:01.422Z,0
2018-10-01T04:15:11.395Z,0
2018-10-01T04:16:21.078Z,0
2018-10-01T04:17:30.746Z,0
2018-10-01T04:18:40.432Z,0
2018-10-01T04:19:50.117Z,0
2018-10-01T04:21:00.064Z,0
2018-10-01T04:22:10.010Z,0
2018-10-01T04:23:19.700Z,0
2018-10-01T04:24:29.657Z,0
2018-10-01T04:25:39.610Z,0
2018-10-01T04:26:49.319Z,0
2018-10-01T04:27:59.254Z,0
2018-10-01T04:29:09.205Z,0
2018-10-01T04:30:18.877Z,0
2018-10-01T04:31:28.829Z,0
2018-10-01T04:32:38.519Z,0
2018-10-01T04:33:48.207Z,0
2018-10-01T04:34:57.621Z,0
2018-10-01T04:36:07.554Z,0
2018-10-01T04:37:17.532Z,0
2018-10-01T04:38:27.215Z,0
2018-10-01T04:39:37.174Z,0
2018-10-01T04:40:47.331Z,0
2018-10-01T04:41:57.524Z,0
2018-10-01T04:43:07.492Z,0
2018-10-01T04:44:17.441Z,0
2018-10-01T04:45:27.393Z,0
2018-10-01T04:46:37.382Z,0
2018-10-01T04:47:47.339Z,0
2018-10-01T04:48:57.289Z,0
2018-10-01T04:50:06.973Z,0
2018-10-01T04:51:16.932Z,0
2018-10-01T04:52:26.867Z,0
2018-10-01T04:53:36.566Z,0
2018-10-01T04:54:46.262Z,0
2018-10-01T04:55:55.960Z,0
2018-10-01T04:57:05.680Z,5
2018-10-01T04:58:16.224Z,5
2018-10-01T04:59:26.209Z,5
2018-10-01T05:00:36.169Z,5
2018-10-01T05:01:45.864Z,10
2018-10-01T05:02:55.821Z,10
2018-10-01T05:04:05.765Z,10
2018-10-01T05:05:15.709Z,10
2018-10-01T05:06:25.577Z,10
2018-10-01T05:07:35.522Z,15
2018-10-01T05:08:45.219Z,15
2018-10-01T05:09:55.173Z,20
2018-10-01T05:11:04.849Z,20
2018-10-01T05:12:14.795Z,20
2018-10-01T05:13:24.733Z,25
2018-10-01T05:14:34.708Z,25
2018-10-01T05:15:44.394Z,30
2018-10-01T05:16:54.333Z,30
2018-10-01T05:18:04.296Z,35
2018-10-01T05:19:14.251Z,35
2018-10-01T05:20:24.208Z,40
2018-10-01T05:21:34.154Z,40
2018-10-01T05:22:43.840Z,45
2018-10-01T05:23:53.275Z,45
2018-10-01T05:25:03.200Z,50
2018-10-01T05:26:12.869Z,50
2018-10-01T05:27:23.152Z,55
2018-10-01T05:28:33.100Z,55
2018-10-01T05:29:42.811Z,60
2018-10-01T05:30:52.238Z,60
2018-10-01T05:32:02.187Z,65
2018-10-01T05:33:11.869Z,65
2018-10-01T05:34:21.560Z,70
2018-10-01T05:35:31.516Z,70
2018-10-01T05:36:41.223Z,75
2018-10-01T05:37:51.392Z,75
2018-10-01T05:39:01.376Z,80
2018-10-01T05:40:11.342Z,80
2018-10-01T05:41:21.038Z,80
2018-10-01T05:42:30.985Z,85
2018-10-01T05:43:40.681Z,85
2018-10-01T05:44:50.647Z,85
2018-10-01T05:46:00.610Z,90
2018-10-01T05:47:10.561Z,90
2018-10-01T05:48:20.501Z,95
2018-10-01T05:49:30.440Z,95
2018-10-01T05:50:40.114Z,100
2018-10-01T05:51:50.050Z,105
2018-10-01T05:53:00.022Z,105
2018-10-01T05:54:09.822Z,110
2018-10-01T05:55:19.794Z,110
2018-10-01T05:56:29.752Z,115
2018-10-01T05:57:39.858Z,115
2018-10-01T05:58:49.622Z,115
2018-10-01T05:59:59.578Z,120
2018-10-01T06:01:09.541Z,125
2018-10-01T06:02:19.483Z,130
2018-10-01T06:03:29.442Z,130
2018-10-01T06:04:39.594Z,135
2018-10-01T06:05:49.630Z,140
2018-10-01T06:06:59.314Z,145
2018-10-01T06:08:09.316Z,150
2018-10-01T06:09:19.319Z,150
2018-10-01T06:10:29.265Z,155
2018-10-01T06:11:39.216Z,160
2018-10-01T06:12:49.163Z,165
2018-10-01T06:13:59.109Z,170
2018-10-01T06:15:09.059Z,180
2018-10-01T06:16:19.009Z,180
2018-10-01T06:17:28.706Z,180
2018-10-01T06:18:38.662Z,190
2018-10-01T06:19:48.609Z,185
2018-10-01T06:20:58.554Z,185
2018-10-01T06:22:07.998Z,190
2018-10-01T06:23:17.961Z,195
2018-10-01T06:24:27.920Z,200
2018-10-01T06:25:37.878Z,205
2018-10-01T06:26:47.834Z,205
2018-10-01T06:27:58.228Z,200
2018-10-01T06:29:07.911Z,205
2018-10-01T06:30:17.849Z,205
2018-10-01T06:31:27.776Z,210
2018-10-01T06:32:37.724Z,210
2018-10-01T06:33:47.688Z,215
2018-10-01T06:34:57.155Z,220
2018-10-01T06:36:07.138Z,220
2018-10-01T06:37:16.869Z,220
2018-10-01T06:38:26.831Z,220
2018-10-01T06:39:36.664Z,220
2018-10-01T06:40:46.102Z,215
2018-10-01T06:41:56.370Z,220
2018-10-01T06:43:05.595Z,215
2018-10-01T06:44:15.057Z,220
2018-10-01T06:45:24.993Z,225
2018-10-01T06:46:34.714Z,220
2018-10-01T06:47:44.153Z,215
2018-10-01T06:48:54.113Z,210
2018-10-01T06:50:03.804Z,215
2018-10-01T06:51:13.768Z,215
2018-10-01T06:52:23.281Z,220
2018-10-01T06:53:32.963Z,220
2018-10-01T06:54:42.931Z,220
2018-10-01T06:55:52.374Z,225
2018-10-01T06:57:02.078Z,230
2018-10-01T06:58:12.028Z,235
2018-10-01T06:59:21.740Z,245
2018-10-01T07:00:31.738Z,245
2018-10-01T07:01:41.434Z,250
2018-10-01T07:02:50.617Z,255
2018-10-01T07:04:00.072Z,265
2018-10-01T07:05:09.767Z,270
2018-10-01T07:06:20.016Z,285
2018-10-01T07:07:29.993Z,300
2018-10-01T07:08:39.744Z,315
2018-10-01T07:09:49.450Z,320
2018-10-01T07:10:59.150Z,340
2018-10-01T07:12:08.858Z,360
2018-10-01T07:13:18.824Z,370
2018-10-01T07:14:28.798Z,380
2018-10-01T07:15:38.783Z,395
2018-10-01T07:16:49.413Z,420
2018-10-01T07:17:59.420Z,430
2018-10-01T07:19:09.369Z,430
2018-10-01T07:20:19.337Z,440
2018-10-01T07:21:29.030Z,445
2018-10-01T07:22:39.542Z,460
2018-10-01T07:23:49.684Z,465
2018-10-01T07:24:59.863Z,470
2018-10-01T07:26:09.829Z,475
2018-10-01T07:27:19.512Z,485
2018-10-01T07:28:29.473Z,485
2018-10-01T07:29:39.167Z,490
2018-10-01T07:30:48.857Z,495
2018-10-01T07:31:58.563Z,515
2018-10-01T07:33:08.536Z,510
2018-10-01T07:34:18.474Z,505
2018-10-01T07:35:28.430Z,495
2018-10-01T07:36:38.123Z,505
2018-10-01T07:37:48.102Z,505
2018-10-01T07:38:58.419Z,500
2018-10-01T07:40:08.041Z,495
2018-10-01T07:41:17.998Z,470
2018-10-01T07:42:27.430Z,455
2018-10-01T07:43:37.383Z,440
2018-10-01T07:44:47.108Z,425
2018-10-01T07:45:56.889Z,415
2018-10-01T07:47:06.947Z,400
2018-10-01T07:48:16.692Z,400
2018-10-01T07:49:26.437Z,400
2018-10-01T07:50:36.825Z,390
2018-10-01T07:51:46.903Z,385
2018-10-01T07:52:56.677Z,385
2018-10-01T07:54:06.390Z,390
2018-10-01T07:55:16.414Z,390
2018-10-01T07:56:26.393Z,390
2018-10-01T07:57:36.813Z,395
2018-10-01T07:58:46.554Z,390
2018-10-01T07:59:57.647Z,390
2018-10-01T08:01:07.797Z,390
2018-10-01T08:02:18.364Z,395
2018-10-01T08:03:28.323Z,400
2018-10-01T08:04:37.755Z,400
2018-10-01T08:05:47.730Z,400
2018-10-01T08:06:57.423Z,405
2018-10-01T08:08:07.136Z,390
2018-10-01T08:09:17.012Z,390
2018-10-01T08:10:26.721Z,395
2018-10-01T08:11:36.703Z,395
2018-10-01T08:12:46.405Z,400
2018-10-01T08:13:56.385Z,410
2018-10-01T08:15:06.105Z,420
2018-10-01T08:16:30.739Z,420
2018-10-01T08:17:40.446Z,425
2018-10-01T08:18:49.887Z,425
2018-10-01T08:19:59.970Z,445
2018-10-01T08:21:09.940Z,445
2018-10-01T08:22:19.642Z,460
2018-10-01T08:23:29.509Z,435
2018-10-01T08:24:39.472Z,420
2018-10-01T08:25:49.442Z,415
2018-10-01T08:26:59.170Z,415
2018-10-01T08:28:09.182Z,440
2018-10-01T08:29:18.986Z,470
2018-10-01T08:30:28.966Z,485
2018-10-01T08:31:38.185Z,535
2018-10-01T08:32:48.445Z,585
2018-10-01T08:33:58.153Z,610
2018-10-01T08:35:08.141Z,675
2018-10-01T08:36:18.170Z,695
2018-10-01T08:37:27.867Z,655
2018-10-01T08:38:38.072Z,660
2018-10-01T08:39:48.138Z,675
2018-10-01T08:40:57.831Z,815
2018-10-01T08:42:07.787Z,965
2018-10-01T08:43:17.756Z,955
2018-10-01T08:44:28.026Z,1020
2018-10-01T08:45:38.057Z,980
2018-10-01T08:46:47.758Z,1035
2018-10-01T08:47:57.727Z,1040
2018-10-01T08:49:07.681Z,1000
2018-10-01T08:50:18.228Z,960
2018-10-01T08:51:27.695Z,840
2018-10-01T08:52:37.669Z,775
2018-10-01T08:53:47.784Z,745
2018-10-01T08:54:57.485Z,750
2018-10-01T08:56:07.762Z,820
2018-10-01T08:57:17.737Z,870
2018-10-01T08:58:27.698Z,725
2018-10-01T08:59:37.823Z,650
2018-10-01T09:00:47.505Z,595
2018-10-01T09:01:57.499Z,605
2018-10-01T09:03:07.477Z,620
2018-10-01T09:04:17.552Z,645
2018-10-01T09:05:27.750Z,680
2018-10-01T09:06:37.799Z,690
2018-10-01T09:07:47.493Z,585
2018-10-01T09:08:57.684Z,605
2018-10-01T09:10:07.655Z,675
2018-10-01T09:11:18.231Z,670
2018-10-01T09:12:28.205Z,725
2018-10-01T09:13:38.165Z,750
2018-10-01T09:14:48.132Z,740
2018-10-01T09:15:58.106Z,615
2018-10-01T09:17:08.364Z,595
2018-10-01T09:18:18.340Z,645
2018-10-01T09:19:28.043Z,695
2018-10-01T09:20:38.322Z,800
2018-10-01T09:21:48.184Z,840
2018-10-01T09:22:58.271Z,995
2018-10-01T09:24:08.323Z,810
2018-10-01T09:25:18.030Z,750
2018-10-01T09:26:28.309Z,805
2018-10-01T09:27:38.014Z,870
2018-10-01T09:28:47.727Z,940
2018-10-01T09:29:57.700Z,945
2018-10-01T09:31:08.266Z,885
2018-10-01T09:32:18.424Z,870
2018-10-01T09:33:28.382Z,885
2018-10-01T09:34:38.337Z,950
2018-10-01T09:35:48.128Z,1005
2018-10-01T09:36:58.169Z,1065
2018-10-01T09:38:08.089Z,1110
2018-10-01T09:39:17.870Z,1160
2018-10-01T09:40:27.760Z,1160
2018-10-01T09:41:37.552Z,1045
2018-10-01T09:42:47.009Z,1155
2018-10-01T09:43:56.759Z,1085
2018-10-01T09:45:06.506Z,1085
2018-10-01T09:46:16.990Z,1075
2018-10-01T09:47:26.951Z,1115
2018-10-01T09:48:37.135Z,1040
2018-10-01T09:49:46.616Z,1065
2018-10-01T09:50:56.567Z,1120
2018-10-01T09:52:06.689Z,1100
2018-10-01T09:53:16.711Z,955
2018-10-01T09:54:26.693Z,1065
2018-10-01T09:55:36.629Z,1055
2018-10-01T09:56:46.727Z,1070
2018-10-01T09:57:56.477Z,1175
2018-10-01T09:59:06.448Z,1220
2018-10-01T10:00:16.406Z,1275
2018-10-01T10:01:25.861Z,1410
2018-10-01T10:02:36.407Z,1460
2018-10-01T10:03:46.503Z,1465
2018-10-01T10:04:57.039Z,1420
2018-10-01T10:06:06.779Z,1415
2018-10-01T10:07:16.742Z,1395
2018-10-01T10:08:26.897Z,1375
2018-10-01T10:09:36.869Z,1305
2018-10-01T10:10:46.936Z,1275
2018-10-01T10:11:56.643Z,1350
2018-10-01T10:13:06.830Z,1355
2018-10-01T10:14:17.550Z,1425
2018-10-01T10:15:27.554Z,1620
2018-10-01T10:16:38.054Z,1500
2018-10-01T10:17:47.912Z,1405
2018-10-01T10:18:57.896Z,1560
2018-10-01T10:20:08.186Z,1680
2018-10-01T10:21:18.185Z,1625
2018-10-01T10:22:28.463Z,1455
2018-10-01T10:23:38.491Z,1565
2018-10-01T10:24:48.502Z,1630
2018-10-01T10:25:58.516Z,1550
2018-10-01T10:27:08.426Z,1320
2018-10-01T10:28:18.386Z,1290
2018-10-01T10:29:28.371Z,1405
2018-10-01T10:30:38.059Z,1535
2018-10-01T10:31:48.026Z,1530
2018-10-01T10:32:57.985Z,1680
2018-10-01T10:34:08.172Z,1670
2018-10-01T10:35:18.281Z,1750
2018-10-01T10:36:28.278Z,1855
2018-10-01T10:37:38.348Z,1815
2018-10-01T10:38:48.169Z,1680
2018-10-01T10:39:58.281Z,1490
2018-10-01T10:41:07.987Z,1325
2018-10-01T10:42:18.038Z,1160
2018-10-01T10:43:28.008Z,1265
2018-10-01T10:44:38.075Z,1305
2018-10-01T10:45:47.844Z,1200
2018-10-01T10:46:57.309Z,1300
2018-10-01T10:48:07.559Z,1425
2018-10-01T10:49:17.633Z,1420
2018-10-01T10:50:27.375Z,1455
2018-10-01T10:51:36.819Z,1500
2018-10-01T10:52:46.540Z,1550
2018-10-01T10:53:56.516Z,1620
2018-10-01T10:55:06.254Z,1670
2018-10-01T10:56:16.801Z,1570
2018-10-01T10:57:26.873Z,1445
2018-10-01T10:58:36.852Z,1420
2018-10-01T10:59:46.806Z,1460
2018-10-01T11:00:56.766Z,1480
2018-10-01T11:02:06.992Z,1480
2018-10-01T11:03:16.754Z,1550
2018-10-01T11:04:26.189Z,1600
2018-10-01T11:05:36.165Z,1835
2018-10-01T11:06:46.118Z,2005
2018-10-01T11:07:56.082Z,1610
2018-10-01T11:09:05.782Z,1670
2018-10-01T11:10:15.486Z,1345
2018-10-01T11:11:25.184Z,1170
2018-10-01T11:12:34.634Z,1280
2018-10-01T11:13:44.329Z,1410
2018-10-01T11:14:54.657Z,1510
2018-10-01T11:16:04.784Z,955
2018-10-01T11:17:15.022Z,830
2018-10-01T11:18:24.968Z,780
2018-10-01T11:19:35.114Z,750
2018-10-01T11:20:45.356Z,740
2018-10-01T11:21:55.733Z,675
2018-10-01T11:23:05.718Z,525
2018-10-01T11:24:15.674Z,435
2018-10-01T11:25:26.063Z,410
2018-10-01T11:26:36.039Z,440
2018-10-01T11:27:46.598Z,480
2018-10-01T11:28:57.129Z,525
2018-10-01T11:30:07.168Z,565
2018-10-01T11:31:17.260Z,605
2018-10-01T11:32:27.224Z,635
2018-10-01T11:33:37.217Z,660
2018-10-01T11:34:47.597Z,710
2018-10-01T11:35:57.596Z,740
2018-10-01T11:37:07.619Z,785
2018-10-01T11:38:17.382Z,845
2018-10-01T11:39:27.364Z,780
2018-10-01T11:40:37.333Z,685
2018-10-01T11:41:47.293Z,655
2018-10-01T11:42:57.323Z,575
2018-10-01T11:44:07.020Z,475
2018-10-01T11:45:17.616Z,460
2018-10-01T11:46:27.828Z,475
2018-10-01T11:47:37.793Z,520
2018-10-01T11:48:47.238Z,545
2018-10-01T11:49:57.220Z,510
2018-10-01T11:51:07.194Z,460
2018-10-01T11:52:16.941Z,430
2018-10-01T11:53:26.642Z,425
2018-10-01T11:54:37.025Z,450
2018-10-01T11:55:46.992Z,485
2018-10-01T11:56:56.980Z,515
2018-10-01T11:58:06.967Z,540
2018-10-01T11:59:16.964Z,515
2018-10-01T12:00:26.648Z,475
2018-10-01T12:01:36.626Z,430
2018-10-01T12:02:46.631Z,430
2018-10-01T12:03:56.981Z,460
2018-10-01T12:05:06.729Z,490
2018-10-01T12:06:16.684Z,525
2018-10-01T12:07:26.644Z,570
2018-10-01T12:08:36.634Z,610
2018-10-01T12:09:47.378Z,650
2018-10-01T12:10:57.442Z,685
2018-10-01T12:12:07.404Z,720
2018-10-01T12:13:17.418Z,740
2018-10-01T12:14:27.386Z,775
2018-10-01T12:15:37.670Z,755
2018-10-01T12:16:47.174Z,795
2018-10-01T12:17:57.146Z,660
2018-10-01T12:19:07.168Z,760
2018-10-01T12:20:16.886Z,745
2018-10-01T12:21:27.370Z,685
2018-10-01T12:22:36.905Z,650
2018-10-01T12:23:46.638Z,655
2018-10-01T12:24:56.337Z,650
2018-10-01T12:26:06.289Z,610
2018-10-01T12:27:16.576Z,600
2018-10-01T12:28:26.725Z,665
2018-10-01T12:29:36.747Z,680
2018-10-01T12:30:46.484Z,685
2018-10-01T12:31:56.458Z,690
2018-10-01T12:33:06.725Z,700
2018-10-01T12:34:16.695Z,810
2018-10-01T12:35:26.658Z,995
2018-10-01T12:36:36.349Z,945
2018-10-01T12:37:46.306Z,830
2018-10-01T12:38:56.291Z,735
2018-10-01T12:40:06.006Z,690
2018-10-01T12:41:15.699Z,670
2018-10-01T12:42:25.411Z,750
2018-10-01T12:43:35.486Z,850
2018-10-01T12:44:45.467Z,840
2018-10-01T12:45:55.575Z,725
2018-10-01T12:47:05.680Z,630
2018-10-01T12:48:15.131Z,575
2018-10-01T12:49:24.842Z,560
2018-10-01T12:50:34.810Z,565
2018-10-01T12:51:45.270Z,570
2018-10-01T12:52:55.304Z,580
2018-10-01T12:54:04.990Z,610
2018-10-01T12:55:14.917Z,635
2018-10-01T12:56:24.876Z,690
2018-10-01T12:57:35.160Z,750
2018-10-01T12:58:45.235Z,695
2018-10-01T12:59:54.929Z,725
2018-10-01T13:01:04.900Z,935
2018-10-01T13:02:14.885Z,840
2018-10-01T13:03:25.198Z,875
2018-10-01T13:04:35.690Z,930
2018-10-01T13:05:45.960Z,925
2018-10-01T13:06:56.001Z,875
2018-10-01T13:08:05.893Z,840
2018-10-01T13:09:15.593Z,835
2018-10-01T13:10:25.348Z,870
2018-10-01T13:11:35.071Z,720
2018-10-01T13:12:45.966Z,690
2018-10-01T13:13:55.259Z,680
2018-10-01T13:15:05.304Z,680
2018-10-01T13:16:15.291Z,710
2018-10-01T13:17:25.290Z,765
2018-10-01T13:18:35.337Z,870
2018-10-01T13:19:45.432Z,945
2018-10-01T13:20:54.905Z,945
2018-10-01T13:22:05.206Z,940
2018-10-01T13:23:15.896Z,960
2018-10-01T13:24:26.363Z,1285
2018-10-01T13:25:36.117Z,1160
2018-10-01T13:26:45.822Z,1020
2018-10-01T13:27:55.814Z,805
2018-10-01T13:29:05.527Z,840
2018-10-01T13:30:15.536Z,770
2018-10-01T13:31:25.565Z,880
2018-10-01T13:32:35.566Z,905
2018-10-01T13:33:45.540Z,1745
2018-10-01T13:34:55.543Z,1230
2018-10-01T13:36:05.565Z,1115
2018-10-01T13:37:15.616Z,980
2018-10-01T13:38:25.595Z,1010
2018-10-01T13:39:35.554Z,960
2018-10-01T13:40:45.045Z,855
2018-10-01T13:41:55.787Z,845
2018-10-01T13:43:06.080Z,870
2018-10-01T13:44:16.030Z,2090
2018-10-01T13:45:25.764Z,1520
2018-10-01T13:46:35.756Z,760
2018-10-01T13:47:45.753Z,1030
2018-10-01T13:48:55.735Z,900
2018-10-01T13:50:05.713Z,680
2018-10-01T13:51:15.447Z,900
2018-10-01T13:52:25.898Z,795
2018-10-01T13:53:35.867Z,1250
2018-10-01T13:54:46.734Z,1245
2018-10-01T13:55:56.829Z,1185
2018-10-01T13:57:06.858Z,585
2018-10-01T13:58:16.971Z,535
2018-10-01T13:59:27.636Z,460
2018-10-01T14:00:38.236Z,400
2018-10-01T14:01:48.889Z,370
2018-10-01T14:02:58.896Z,370
2018-10-01T14:04:08.862Z,355
2018-10-01T14:05:18.841Z,340
2018-10-01T14:06:29.522Z,320
2018-10-01T14:07:40.056Z,290
2018-10-01T14:08:50.116Z,255
2018-10-01T14:10:00.092Z,210
2018-10-01T14:11:09.580Z,165
2018-10-01T14:12:19.288Z,135
2018-10-01T14:13:30.190Z,120
2018-10-01T14:14:40.649Z,120
2018-10-01T14:15:50.937Z,115
2018-10-01T14:17:01.162Z,105
2018-10-01T14:18:10.918Z,95
2018-10-01T14:19:21.927Z,95
2018-10-01T14:20:31.413Z,105
2018-10-01T14:21:41.120Z,115
2018-10-01T14:22:50.840Z,115
2018-10-01T14:24:00.568Z,120
2018-10-01T14:25:10.992Z,125
2018-10-01T14:26:20.612Z,125
2018-10-01T14:27:30.350Z,135
2018-10-01T14:28:40.339Z,140
2018-10-01T14:29:50.313Z,150
2018-10-01T14:31:00.379Z,170
2018-10-01T14:32:10.190Z,185
2018-10-01T14:33:20.012Z,195
2018-10-01T14:34:29.707Z,200
2018-10-01T14:35:39.697Z,205
2018-10-01T14:36:49.860Z,210
2018-10-01T14:37:59.952Z,215
2018-10-01T14:39:09.646Z,220
2018-10-01T14:40:19.644Z,220
2018-10-01T14:41:29.583Z,225
2018-10-01T14:42:39.944Z,220
2018-10-01T14:43:49.727Z,215
2018-10-01T14:44:59.697Z,215
2018-10-01T14:46:09.663Z,220
2018-10-01T14:47:19.632Z,205
2018-10-01T14:48:29.256Z,185
2018-10-01T14:49:39.229Z,165
2018-10-01T14:50:49.196Z,160
2018-10-01T14:51:59.157Z,150
2018-10-01T14:53:09.129Z,150
2018-10-01T14:54:19.441Z,150
2018-10-01T14:55:29.136Z,150
2018-10-01T14:56:39.099Z,150
2018-10-01T14:57:48.799Z,145
2018-10-01T14:58:58.768Z,145
2018-10-01T15:00:08.111Z,140
2018-10-01T15:01:17.798Z,135
2018-10-01T15:02:27.743Z,140
2018-10-01T15:03:37.834Z,150
2018-10-01T15:04:47.798Z,160
2018-10-01T15:05:57.537Z,150
2018-10-01T15:07:07.519Z,145
2018-10-01T15:08:17.487Z,135
2018-10-01T15:09:27.431Z,130
2018-10-01T15:10:37.528Z,115
2018-10-01T15:11:47.483Z,100
2018-10-01T15:12:57.435Z,95
2018-10-01T15:14:07.398Z,90
2018-10-01T15:15:17.075Z,80
2018-10-01T15:16:27.532Z,65
2018-10-01T15:17:37.219Z,60
2018-10-01T15:18:47.357Z,50
2018-10-01T15:19:57.323Z,40
2018-10-01T15:21:07.018Z,40
2018-10-01T15:22:17.284Z,35
2018-10-01T15:23:27.048Z,35
2018-10-01T15:24:37.558Z,35
2018-10-01T15:25:47.590Z,35
2018-10-01T15:26:57.547Z,35
2018-10-01T15:28:07.251Z,35
2018-10-01T15:29:16.946Z,40
2018-10-01T15:30:26.864Z,45
2018-10-01T15:31:36.824Z,55
2018-10-01T15:32:46.778Z,55
2018-10-01T15:33:56.734Z,65
2018-10-01T15:35:06.694Z,75
2018-10-01T15:36:17.239Z,90
2018-10-01T15:37:27.213Z,100
2018-10-01T15:38:37.160Z,110
2018-10-01T15:39:47.112Z,115
2018-10-01T15:40:57.062Z,120
2018-10-01T15:42:06.918Z,125
2018-10-01T15:43:16.874Z,125
2018-10-01T15:44:27.249Z,125
2018-10-01T15:45:37.223Z,120
2018-10-01T15:46:47.177Z,120
2018-10-01T15:47:56.873Z,125
2018-10-01T15:49:06.852Z,125
2018-10-01T15:50:16.611Z,130
2018-10-01T15:51:26.316Z,130
2018-10-01T15:52:36.296Z,130
2018-10-01T15:53:45.737Z,130
2018-10-01T15:54:55.436Z,125
2018-10-01T15:56:05.787Z,130
2018-10-01T15:57:15.781Z,120
2018-10-01T15:58:25.484Z,115
2018-10-01T15:59:35.435Z,110
2018-10-01T16:00:45.405Z,105
2018-10-01T16:01:55.114Z,100
2018-10-01T16:03:05.073Z,95
2018-10-01T16:04:15.033Z,95
2018-10-01T16:05:25.009Z,90
2018-10-01T16:06:34.733Z,85
2018-10-01T16:07:44.751Z,80
2018-10-01T16:08:54.705Z,85
2018-10-01T16:10:04.667Z,85
2018-10-01T16:11:14.937Z,95
2018-10-01T16:12:24.711Z,85
2018-10-01T16:13:34.674Z,135
2018-10-01T16:14:44.098Z,150
2018-10-01T16:15:53.857Z,95
2018-10-01T16:17:03.807Z,75
2018-10-01T16:18:13.952Z,95
2018-10-01T16:19:23.971Z,140
2018-10-01T16:20:33.663Z,105
2018-10-01T16:21:43.097Z,75
2018-10-01T16:22:53.069Z,55